sensor_id;sensor_type;location;lat;lon;timestamp;pressure;altitude;pressure_sealevel;temperature;humidity
22047;BME280;11187;49.412;20.956;2023-03-20T00:00:49;95071.75;;;3.28;85.36
22047;BME280;11187;49.412;20.956;2023-03-20T00:03:37;95078.44;;;3.23;84.88
22047;BME280;11187;49.412;20.956;2023-03-20T00:09:03;95070.84;;;3.23;85.30
22047;BME280;11187;49.412;20.956;2023-03-20T00:11:45;95070.00;;;3.24;85.41
22047;BME280;11187;49.412;20.956;2023-03-20T00:14:34;95078.44;;;3.23;85.18
22047;BME280;11187;49.412;20.956;2023-03-20T00:17:14;95069.94;;;3.18;85.46
22047;BME280;11187;49.412;20.956;2023-03-20T00:20:13;95070.78;;;3.13;85.31
22047;BME280;11187;49.412;20.956;2023-03-20T00:22:48;95069.91;;;3.11;85.45
22047;BME280;11187;49.412;20.956;2023-03-20T00:25:44;95068.22;;;3.12;85.84
22047;BME280;11187;49.412;20.956;2023-03-20T00:31:27;95071.59;;;3.12;86.00
22047;BME280;11187;49.412;20.956;2023-03-20T00:34:09;95062.28;;;3.10;86.23
22047;BME280;11187;49.412;20.956;2023-03-20T00:36:58;95057.22;;;3.07;86.23
22047;BME280;11187;49.412;20.956;2023-03-20T00:39:31;95052.09;;;3.01;86.18
22047;BME280;11187;49.412;20.956;2023-03-20T00:42:20;95046.16;;;2.99;86.68
22047;BME280;11187;49.412;20.956;2023-03-20T00:44:57;95050.38;;;2.98;86.20
22047;BME280;11187;49.412;20.956;2023-03-20T00:47:44;95049.53;;;2.96;86.78
22047;BME280;11187;49.412;20.956;2023-03-20T00:50:21;95051.19;;;2.94;86.64
22047;BME280;11187;49.412;20.956;2023-03-20T00:53:11;95051.97;;;2.90;86.82
22047;BME280;11187;49.412;20.956;2023-03-20T00:55:44;95057.03;;;2.88;86.67
22047;BME280;11187;49.412;20.956;2023-03-20T00:58:31;95051.94;;;2.85;86.72
22047;BME280;11187;49.412;20.956;2023-03-20T01:01:04;95050.25;;;2.84;86.83
22047;BME280;11187;49.412;20.956;2023-03-20T01:03:52;95046.00;;;2.83;87.54
22047;BME280;11187;49.412;20.956;2023-03-20T01:06:25;95047.72;;;2.84;87.23
22047;BME280;11187;49.412;20.956;2023-03-20T01:09:12;95055.25;;;2.81;87.37
22047;BME280;11187;49.412;20.956;2023-03-20T01:11:45;95052.72;;;2.78;87.30
22047;BME280;11187;49.412;20.956;2023-03-20T01:14:40;95050.16;;;2.77;87.74
22047;BME280;11187;49.412;20.956;2023-03-20T01:17:18;95043.41;;;2.76;87.79
22047;BME280;11187;49.412;20.956;2023-03-20T01:20:16;95051.88;;;2.79;88.03
22047;BME280;11187;49.412;20.956;2023-03-20T01:22:49;95052.72;;;2.80;87.77
22047;BME280;11187;49.412;20.956;2023-03-20T01:25:37;95051.84;;;2.76;87.55
22047;BME280;11187;49.412;20.956;2023-03-20T01:28:14;95054.34;;;2.73;87.78
22047;BME280;11187;49.412;20.956;2023-03-20T01:31:09;95061.88;;;2.68;87.92
22047;BME280;11187;49.412;20.956;2023-03-20T01:33:43;95058.47;;;2.65;88.07
22047;BME280;11187;49.412;20.956;2023-03-20T01:36:30;95060.97;;;2.63;88.89
22047;BME280;11187;49.412;20.956;2023-03-20T01:39:04;95067.75;;;2.66;88.25
22047;BME280;11187;49.412;20.956;2023-03-20T01:41:58;95064.34;;;2.64;88.79
22047;BME280;11187;49.412;20.956;2023-03-20T01:44:34;95073.59;;;2.62;88.47
22047;BME280;11187;49.412;20.956;2023-03-20T01:47:22;95067.66;;;2.57;88.71
22047;BME280;11187;49.412;20.956;2023-03-20T01:50:26;95063.38;;;2.53;88.90
22047;BME280;11187;49.412;20.956;2023-03-20T01:53:17;95065.03;;;2.49;89.09
22047;BME280;11187;49.412;20.956;2023-03-20T01:55:53;95065.00;;;2.47;88.84
22047;BME280;11187;49.412;20.956;2023-03-20T01:58:44;95059.09;;;2.45;89.44
22047;BME280;11187;49.412;20.956;2023-03-20T02:01:23;95063.28;;;2.43;89.26
22047;BME280;11187;49.412;20.956;2023-03-20T02:04:20;95052.31;;;2.41;89.39
22047;BME280;11187;49.412;20.956;2023-03-20T02:07:19;95055.66;;;2.40;89.41
22047;BME280;11187;49.412;20.956;2023-03-20T02:09:54;95052.25;;;2.38;89.51
22047;BME280;11187;49.412;20.956;2023-03-20T02:12:42;95061.53;;;2.39;89.88
22047;BME280;11187;49.412;20.956;2023-03-20T02:15:16;95056.50;;;2.41;89.69
22047;BME280;11187;49.412;20.956;2023-03-20T02:18:02;95053.09;;;2.37;89.99
22047;BME280;11187;49.412;20.956;2023-03-20T02:20:49;95058.19;;;2.39;89.87
22047;BME280;11187;49.412;20.956;2023-03-20T02:33:14;95048.03;;;2.37;90.23
22047;BME280;11187;49.412;20.956;2023-03-20T02:36:25;95048.84;;;2.35;90.38
22047;BME280;11187;49.412;20.956;2023-03-20T02:39:48;95043.81;;;2.36;90.66
22047;BME280;11187;49.412;20.956;2023-03-20T02:46:05;95052.34;;;2.44;90.65
22047;BME280;11187;49.412;20.956;2023-03-20T02:49:12;95043.13;;;2.49;91.12
22047;BME280;11187;49.412;20.956;2023-03-20T02:51:54;95042.28;;;2.49;90.86
22047;BME280;11187;49.412;20.956;2023-03-20T02:54:48;95044.81;;;2.49;90.93
22047;BME280;11187;49.412;20.956;2023-03-20T03:00:32;95041.47;;;2.51;91.19
22047;BME280;11187;49.412;20.956;2023-03-20T03:03:32;95041.44;;;2.48;91.37
22047;BME280;11187;49.412;20.956;2023-03-20T03:06:26;95051.50;;;2.47;91.23
22047;BME280;11187;49.412;20.956;2023-03-20T03:09:45;95047.31;;;2.46;91.35
22047;BME280;11187;49.412;20.956;2023-03-20T03:12:42;95044.78;;;2.46;90.99
22047;BME280;11187;49.412;20.956;2023-03-20T03:15:39;95045.66;;;2.48;91.08
22047;BME280;11187;49.412;20.956;2023-03-20T03:18:20;95042.28;;;2.49;91.20
22047;BME280;11187;49.412;20.956;2023-03-20T03:21:12;95038.91;;;2.48;91.18
22047;BME280;11187;49.412;20.956;2023-03-20T03:23:48;95038.88;;;2.47;91.08
22047;BME280;11187;49.412;20.956;2023-03-20T03:26:38;95037.19;;;2.47;91.59
22047;BME280;11187;49.412;20.956;2023-03-20T03:29:15;95035.53;;;2.48;91.31
22047;BME280;11187;49.412;20.956;2023-03-20T03:32:05;95032.13;;;2.44;91.39
22047;BME280;11187;49.412;20.956;2023-03-20T03:34:38;95027.88;;;2.42;91.21
22047;BME280;11187;49.412;20.956;2023-03-20T03:37:51;95030.38;;;2.39;91.63
22047;BME280;11187;49.412;20.956;2023-03-20T03:40:34;95030.31;;;2.36;91.30
22047;BME280;11187;49.412;20.956;2023-03-20T03:43:51;95030.31;;;2.33;91.40
22047;BME280;11187;49.412;20.956;2023-03-20T03:46:44;95029.41;;;2.27;91.72
22047;BME280;11187;49.412;20.956;2023-03-20T03:49:38;95023.44;;;2.22;91.63
22047;BME280;11187;49.412;20.956;2023-03-20T03:52:18;95023.44;;;2.21;91.39
22047;BME280;11187;49.412;20.956;2023-03-20T03:55:09;95017.50;;;2.19;91.84
22047;BME280;11187;49.412;20.956;2023-03-20T03:57:48;95025.03;;;2.16;91.74
22047;BME280;11187;49.412;20.956;2023-03-20T04:00:44;95026.69;;;2.12;91.97
22047;BME280;11187;49.412;20.956;2023-03-20T04:03:42;95028.31;;;2.08;91.76
22047;BME280;11187;49.412;20.956;2023-03-20T04:06:36;95031.66;;;2.06;92.13
22047;BME280;11187;49.412;20.956;2023-03-20T04:09:09;95031.66;;;2.06;92.05
22047;BME280;11187;49.412;20.956;2023-03-20T04:12:04;95035.03;;;2.05;92.32
22047;BME280;11187;49.412;20.956;2023-03-20T04:14:58;95040.00;;;2.00;92.18
22047;BME280;11187;49.412;20.956;2023-03-20T04:17:52;95041.63;;;1.97;92.44
22047;BME280;11187;49.412;20.956;2023-03-20T04:20:46;95047.47;;;1.93;92.37
22047;BME280;11187;49.412;20.956;2023-03-20T04:23:20;95043.19;;;1.87;92.46
22047;BME280;11187;49.412;20.956;2023-03-20T04:26:14;95046.50;;;1.83;92.75
22047;BME280;11187;49.412;20.956;2023-03-20T04:29:08;95049.81;;;1.80;92.81
22047;BME280;11187;49.412;20.956;2023-03-20T04:32:02;95052.34;;;1.80;92.81
22047;BME280;11187;49.412;20.956;2023-03-20T04:34:35;95052.31;;;1.77;92.77
22047;BME280;11187;49.412;20.956;2023-03-20T04:37:22;95058.16;;;1.75;92.99
22047;BME280;11187;49.412;20.956;2023-03-20T04:39:58;95057.31;;;1.73;93.17
22047;BME280;11187;49.412;20.956;2023-03-20T04:42:45;95058.16;;;1.73;93.28
22047;BME280;11187;49.412;20.956;2023-03-20T04:45:18;95054.75;;;1.71;93.40
22047;BME280;11187;49.412;20.956;2023-03-20T04:48:05;95063.94;;;1.67;93.15
22047;BME280;11187;49.412;20.956;2023-03-20T04:50:38;95067.25;;;1.65;93.40
22047;BME280;11187;49.412;20.956;2023-03-20T04:53:33;95062.22;;;1.65;93.57
22047;BME280;11187;49.412;20.956;2023-03-20T04:56:27;95064.75;;;1.65;93.50
22047;BME280;11187;49.412;20.956;2023-03-20T04:59:00;95067.28;;;1.68;93.42
22047;BME280;11187;49.412;20.956;2023-03-20T05:01:47;95063.13;;;1.70;93.60
22047;BME280;11187;49.412;20.956;2023-03-20T05:04:20;95067.41;;;1.73;93.77
22047;BME280;11187;49.412;20.956;2023-03-20T05:07:07;95058.19;;;1.76;94.13
22047;BME280;11187;49.412;20.956;2023-03-20T05:09:40;95054.00;;;1.78;94.44
22047;BME280;11187;49.412;20.956;2023-03-20T05:12:34;95059.97;;;1.83;94.32
22047;BME280;11187;49.412;20.956;2023-03-20T05:15:28;95061.72;;;1.89;94.45
22047;BME280;11187;49.412;20.956;2023-03-20T05:18:02;95056.69;;;1.91;94.92
22047;BME280;11187;49.412;20.956;2023-03-20T05:20:49;95061.78;;;1.95;95.20
22047;BME280;11187;49.412;20.956;2023-03-20T05:23:22;95060.22;;;2.00;95.17
22047;BME280;11187;49.412;20.956;2023-03-20T05:26:16;95055.25;;;2.08;95.21
22047;BME280;11187;49.412;20.956;2023-03-20T05:29:10;95064.66;;;2.20;94.92
22047;BME280;11187;49.412;20.956;2023-03-20T05:31:43;95060.56;;;2.28;94.78
22047;BME280;11187;49.412;20.956;2023-03-20T05:34:30;95060.69;;;2.37;94.81
22047;BME280;11187;49.412;20.956;2023-03-20T05:37:03;95059.88;;;2.43;94.35
22047;BME280;11187;49.412;20.956;2023-03-20T05:39:57;95060.84;;;2.51;94.71
22047;BME280;11187;49.412;20.956;2023-03-20T05:42:51;95064.31;;;2.61;94.41
22047;BME280;11187;49.412;20.956;2023-03-20T05:45:45;95063.53;;;2.66;94.26
22047;BME280;11187;49.412;20.956;2023-03-20T05:48:18;95060.28;;;2.75;94.19
22047;BME280;11187;49.412;20.956;2023-03-20T05:51:05;95061.22;;;2.86;93.92
22047;BME280;11187;49.412;20.956;2023-03-20T05:53:38;95069.78;;;2.98;93.74
22047;BME280;11187;49.412;20.956;2023-03-20T05:56:25;95058.00;;;3.04;93.81
22047;BME280;11187;49.412;20.956;2023-03-20T05:58:58;95066.50;;;3.11;93.38
22047;BME280;11187;49.412;20.956;2023-03-20T06:01:45;95064.06;;;3.20;93.46
22047;BME280;11187;49.412;20.956;2023-03-20T06:04:18;95060.78;;;3.29;92.82
22047;BME280;11187;49.412;20.956;2023-03-20T06:07:12;95058.31;;;3.35;92.49
22047;BME280;11187;49.412;20.956;2023-03-20T06:09:45;95063.41;;;3.41;92.36
22047;BME280;11187;49.412;20.956;2023-03-20T06:12:39;95067.63;;;3.42;92.03
22047;BME280;11187;49.412;20.956;2023-03-20T06:15:33;95067.66;;;3.44;91.96
22047;BME280;11187;49.412;20.956;2023-03-20T06:18:27;95072.72;;;3.47;92.07
22047;BME280;11187;49.412;20.956;2023-03-20T06:21:21;95071.94;;;3.51;91.52
22047;BME280;11187;49.412;20.956;2023-03-20T06:23:54;95074.50;;;3.59;91.74
22047;BME280;11187;49.412;20.956;2023-03-20T06:26:41;95072.91;;;3.67;91.73
22047;BME280;11187;49.412;20.956;2023-03-20T06:29:14;95076.34;;;3.76;91.22
22047;BME280;11187;49.412;20.956;2023-03-20T06:32:02;95071.31;;;3.86;91.17
22047;BME280;11187;49.412;20.956;2023-03-20T06:34:35;95075.63;;;3.93;90.87
22047;BME280;11187;49.412;20.956;2023-03-20T06:37:21;95079.06;;;4.03;90.38
22047;BME280;11187;49.412;20.956;2023-03-20T06:39:54;95074.03;;;4.09;90.18
22047;BME280;11187;49.412;20.956;2023-03-20T06:42:48;95079.94;;;4.12;89.82
22047;BME280;11187;49.412;20.956;2023-03-20T06:45:42;95084.22;;;4.18;89.58
22047;BME280;11187;49.412;20.956;2023-03-20T06:48:15;95087.63;;;4.26;89.57
22047;BME280;11187;49.412;20.956;2023-03-20T06:51:02;95085.97;;;4.33;89.35
22047;BME280;11187;49.412;20.956;2023-03-20T06:53:35;95084.34;;;4.41;88.80
22047;BME280;11187;49.412;20.956;2023-03-20T06:56:23;95082.69;;;4.52;88.29
22047;BME280;11187;49.412;20.956;2023-03-20T06:58:56;95081.03;;;4.60;87.83
22047;BME280;11187;49.412;20.956;2023-03-20T07:01:43;95082.75;;;4.69;87.60
22047;BME280;11187;49.412;20.956;2023-03-20T07:04:17;95085.34;;;4.81;87.29
22047;BME280;11187;49.412;20.956;2023-03-20T07:07:03;95078.59;;;4.91;86.67
22047;BME280;11187;49.412;20.956;2023-03-20T07:09:36;95080.34;;;5.05;86.43
22047;BME280;11187;49.412;20.956;2023-03-20T07:12:24;95077.78;;;5.15;86.24
22047;BME280;11187;49.412;20.956;2023-03-20T07:15:18;95082.06;;;5.33;85.34
22047;BME280;11187;49.412;20.956;2023-03-20T07:17:54;95087.16;;;5.47;84.49
22047;BME280;11187;49.412;20.956;2023-03-20T07:20:50;95078.72;;;5.63;84.12
22047;BME280;11187;49.412;20.956;2023-03-20T07:23:44;95077.84;;;5.78;83.28
22047;BME280;11187;49.412;20.956;2023-03-20T07:26:20;95082.09;;;5.93;82.69
22047;BME280;11187;49.412;20.956;2023-03-20T07:29:07;95086.34;;;6.06;81.43
22047;BME280;11187;49.412;20.956;2023-03-20T07:31:40;95091.38;;;6.25;81.29
22047;BME280;11187;49.412;20.956;2023-03-20T07:34:27;95098.13;;;6.41;78.81
22047;BME280;11187;49.412;20.956;2023-03-20T07:37:01;95107.41;;;6.61;78.22
22047;BME280;11187;49.412;20.956;2023-03-20T07:39:47;95111.59;;;6.73;77.71
22047;BME280;11187;49.412;20.956;2023-03-20T07:42:20;95110.69;;;6.86;77.00
22047;BME280;11187;49.412;20.956;2023-03-20T07:45:14;95109.75;;;7.04;75.57
22047;BME280;11187;49.412;20.956;2023-03-20T07:47:50;95110.53;;;7.17;74.15
22047;BME280;11187;49.412;20.956;2023-03-20T07:50:43;95107.88;;;7.35;74.42
22047;BME280;11187;49.412;20.956;2023-03-20T07:53:37;95112.81;;;7.58;73.59
22047;BME280;11187;49.412;20.956;2023-03-20T07:56:10;95094.88;;;7.73;72.70
22047;BME280;11187;49.412;20.956;2023-03-20T07:58:57;95088.81;;;7.90;72.16
22047;BME280;11187;49.412;20.956;2023-03-20T08:01:30;95094.59;;;8.09;72.02
22047;BME280;11187;49.412;20.956;2023-03-20T08:04:17;95079.13;;;8.26;71.71
22047;BME280;11187;49.412;20.956;2023-03-20T08:06:53;95078.97;;;8.46;71.59
22047;BME280;11187;49.412;20.956;2023-03-20T08:09:47;95084.69;;;8.66;70.90
22047;BME280;11187;49.412;20.956;2023-03-20T08:12:20;95075.97;;;8.86;70.37
22047;BME280;11187;49.412;20.956;2023-03-20T08:15:07;95074.06;;;9.00;68.49
22047;BME280;11187;49.412;20.956;2023-03-20T08:17:43;95073.88;;;9.15;67.87
22047;BME280;11187;49.412;20.956;2023-03-20T08:20:37;95069.31;;;9.36;68.05
22047;BME280;11187;49.412;20.956;2023-03-20T08:23:31;95065.47;;;9.65;66.35
22047;BME280;11187;49.412;20.956;2023-03-20T08:26:05;95069.34;;;9.90;65.46
22047;BME280;11187;49.412;20.956;2023-03-20T08:28:51;95070.53;;;10.19;64.22
22047;BME280;11187;49.412;20.956;2023-03-20T08:31:24;95069.13;;;10.54;64.27
22047;BME280;11187;49.412;20.956;2023-03-20T08:34:11;95069.41;;;10.80;62.89
22047;BME280;11187;49.412;20.956;2023-03-20T08:36:44;95067.97;;;11.11;62.15
22047;BME280;11187;49.412;20.956;2023-03-20T08:39:38;95062.97;;;11.43;60.54
22047;BME280;11187;49.412;20.956;2023-03-20T08:42:13;95057.97;;;11.75;59.01
22047;BME280;11187;49.412;20.956;2023-03-20T08:45:01;95056.78;;;11.89;59.05
22047;BME280;11187;49.412;20.956;2023-03-20T08:47:34;95053.16;;;11.98;58.22
22047;BME280;11187;49.412;20.956;2023-03-20T08:50:21;95056.44;;;12.03;57.03
22047;BME280;11187;49.412;20.956;2023-03-20T08:52:54;95055.31;;;12.15;56.84
22047;BME280;11187;49.412;20.956;2023-03-20T08:55:49;95058.25;;;12.32;56.69
22047;BME280;11187;49.412;20.956;2023-03-20T08:58:22;95062.75;;;12.57;56.16
22047;BME280;11187;49.412;20.956;2023-03-20T09:01:09;95060.50;;;12.76;55.64
22047;BME280;11187;49.412;20.956;2023-03-20T09:03:42;95058.28;;;12.95;55.31
22047;BME280;11187;49.412;20.956;2023-03-20T09:06:37;95065.38;;;13.16;54.35
22047;BME280;11187;49.412;20.956;2023-03-20T09:09:31;95056.81;;;13.46;52.92
22047;BME280;11187;49.412;20.956;2023-03-20T09:12:25;95056.91;;;13.71;53.19
22047;BME280;11187;49.412;20.956;2023-03-20T09:15:19;95058.94;;;13.88;51.93
22047;BME280;11187;49.412;20.956;2023-03-20T09:17:53;95052.00;;;14.16;51.12
22047;BME280;11187;49.412;20.956;2023-03-20T09:20:42;95064.16;;;14.38;48.71
22047;BME280;11187;49.412;20.956;2023-03-20T09:23:16;95055.03;;;14.53;49.88
22047;BME280;11187;49.412;20.956;2023-03-20T09:26:03;95050.41;;;14.64;49.18
22047;BME280;11187;49.412;20.956;2023-03-20T09:28:36;95055.19;;;14.75;48.27
22047;BME280;11187;49.412;20.956;2023-03-20T09:31:30;95046.91;;;14.90;47.90
22047;BME280;11187;49.412;20.956;2023-03-20T09:34:04;95043.59;;;15.10;47.72
22047;BME280;11187;49.412;20.956;2023-03-20T09:36:50;95037.41;;;15.14;45.07
22047;BME280;11187;49.412;20.956;2023-03-20T09:39:23;95036.38;;;15.18;46.25
22047;BME280;11187;49.412;20.956;2023-03-20T09:51:40;95035.03;;;15.32;43.92
22047;BME280;11187;49.412;20.956;2023-03-20T09:57:03;95017.31;;;15.22;44.76
22047;BME280;11187;49.412;20.956;2023-03-20T09:59:37;95012.31;;;15.19;44.46
22047;BME280;11187;49.412;20.956;2023-03-20T10:02:48;95010.22;;;15.06;44.69
22047;BME280;11187;49.412;20.956;2023-03-20T10:05:26;95011.97;;;15.05;45.33
22047;BME280;11187;49.412;20.956;2023-03-20T10:08:27;95012.69;;;15.09;43.96
22047;BME280;11187;49.412;20.956;2023-03-20T10:20:43;95001.38;;;15.13;43.68
22047;BME280;11187;49.412;20.956;2023-03-20T10:24:02;95004.06;;;15.10;43.71
22047;BME280;11187;49.412;20.956;2023-03-20T10:26:36;94998.19;;;15.06;44.53
22047;BME280;11187;49.412;20.956;2023-03-20T10:32:38;94997.75;;;15.17;43.85
22047;BME280;11187;49.412;20.956;2023-03-20T10:41:18;94997.09;;;15.12;42.62
22047;BME280;11187;49.412;20.956;2023-03-20T10:43:57;94989.28;;;15.15;43.11
22047;BME280;11187;49.412;20.956;2023-03-20T10:46:53;94983.63;;;15.27;42.44
22047;BME280;11187;49.412;20.956;2023-03-20T10:49:53;94986.97;;;15.29;42.68
22047;BME280;11187;49.412;20.956;2023-03-20T10:52:50;94984.69;;;15.21;42.42
22047;BME280;11187;49.412;20.956;2023-03-20T10:55:29;94983.06;;;15.19;42.53
22047;BME280;11187;49.412;20.956;2023-03-20T10:58:22;94981.75;;;15.09;41.64
22047;BME280;11187;49.412;20.956;2023-03-20T11:00:57;94981.44;;;15.16;42.60
22047;BME280;11187;49.412;20.956;2023-03-20T11:03:44;94971.88;;;15.20;43.00
22047;BME280;11187;49.412;20.956;2023-03-20T11:06:24;94961.66;;;15.17;42.07
22047;BME280;11187;49.412;20.956;2023-03-20T11:09:22;94966.28;;;15.09;42.57
22047;BME280;11187;49.412;20.956;2023-03-20T11:12:19;94969.88;;;15.04;42.76
22047;BME280;11187;49.412;20.956;2023-03-20T11:15:25;94975.16;;;15.01;42.34
22047;BME280;11187;49.412;20.956;2023-03-20T11:18:02;94975.56;;;14.91;41.90
22047;BME280;11187;49.412;20.956;2023-03-20T11:20:56;94960.31;;;14.85;42.89
22047;BME280;11187;49.412;20.956;2023-03-20T11:23:33;94968.38;;;14.75;42.22
22047;BME280;11187;49.412;20.956;2023-03-20T11:26:34;94968.97;;;14.83;42.59
22047;BME280;11187;49.412;20.956;2023-03-20T11:29:25;94962.66;;;14.91;43.32
22047;BME280;11187;49.412;20.956;2023-03-20T11:32:31;94949.47;;;14.98;42.77
22047;BME280;11187;49.412;20.956;2023-03-20T11:35:28;94947.03;;;14.95;41.45
22047;BME280;11187;49.412;20.956;2023-03-20T11:38:22;94941.75;;;14.98;42.01
22047;BME280;11187;49.412;20.956;2023-03-20T11:40:56;94939.34;;;14.94;42.25
22047;BME280;11187;49.412;20.956;2023-03-20T11:43:42;94937.31;;;15.02;42.77
22047;BME280;11187;49.412;20.956;2023-03-20T11:46:16;94932.22;;;15.22;42.90
22047;BME280;11187;49.412;20.956;2023-03-20T11:49:18;94929.75;;;15.41;40.04
22047;BME280;11187;49.412;20.956;2023-03-20T11:51:55;94935.31;;;15.53;41.82
22047;BME280;11187;49.412;20.956;2023-03-20T11:54:54;94929.25;;;15.54;42.19
22047;BME280;11187;49.412;20.956;2023-03-20T11:57:32;94931.47;;;15.63;41.70
22047;BME280;11187;49.412;20.956;2023-03-20T12:00:34;94929.41;;;15.71;41.78
22047;BME280;11187;49.412;20.956;2023-03-20T12:07:09;94930.94;;;15.97;40.62
22047;BME280;11187;49.412;20.956;2023-03-20T12:10:09;94929.13;;;15.99;40.64
22047;BME280;11187;49.412;20.956;2023-03-20T12:13:04;94924.00;;;15.98;40.48
22047;BME280;11187;49.412;20.956;2023-03-20T12:16:14;94923.31;;;15.94;41.07
22047;BME280;11187;49.412;20.956;2023-03-20T12:19:21;94921.56;;;15.95;40.73
22047;BME280;11187;49.412;20.956;2023-03-20T12:22:34;94913.75;;;15.96;39.04
22047;BME280;11187;49.412;20.956;2023-03-20T12:25:20;94911.81;;;16.01;40.12
22047;BME280;11187;49.412;20.956;2023-03-20T12:31:03;94913.69;;;15.98;40.70
22047;BME280;11187;49.412;20.956;2023-03-20T12:33:57;94914.91;;;15.89;40.46
22047;BME280;11187;49.412;20.956;2023-03-20T12:36:41;94909.94;;;15.84;40.30
22047;BME280;11187;49.412;20.956;2023-03-20T12:39:46;94907.09;;;15.91;40.66
22047;BME280;11187;49.412;20.956;2023-03-20T12:45:13;94904.47;;;15.92;40.29
22047;BME280;11187;49.412;20.956;2023-03-20T12:48:15;94906.72;;;15.79;39.91
22047;BME280;11187;49.412;20.956;2023-03-20T12:57:36;94907.41;;;15.62;39.63
22047;BME280;11187;49.412;20.956;2023-03-20T13:06:01;94903.66;;;15.49;40.99
22047;BME280;11187;49.412;20.956;2023-03-20T13:15:34;94903.09;;;15.41;40.60
22047;BME280;11187;49.412;20.956;2023-03-20T13:18:39;94899.66;;;15.42;40.55
22047;BME280;11187;49.412;20.956;2023-03-20T13:21:40;94903.94;;;15.41;40.85
22047;BME280;11187;49.412;20.956;2023-03-20T13:24:47;94897.91;;;15.42;40.50
22047;BME280;11187;49.412;20.956;2023-03-20T13:30:36;94895.13;;;15.47;40.87
22047;BME280;11187;49.412;20.956;2023-03-20T13:33:45;94881.44;;;15.45;40.71
22047;BME280;11187;49.412;20.956;2023-03-20T13:37:27;94886.41;;;15.50;41.25
22047;BME280;11187;49.412;20.956;2023-03-20T13:46:18;94882.47;;;15.41;41.51
22047;BME280;11187;49.412;20.956;2023-03-20T13:52:16;94884.28;;;15.39;40.84
22047;BME280;11187;49.412;20.956;2023-03-20T13:58:27;94887.00;;;15.36;42.13
22047;BME280;11187;49.412;20.956;2023-03-20T14:01:43;94888.66;;;15.37;42.60
22047;BME280;11187;49.412;20.956;2023-03-20T14:04:38;94888.75;;;15.35;43.40
22047;BME280;11187;49.412;20.956;2023-03-20T14:07:35;94888.06;;;15.30;43.17
22047;BME280;11187;49.412;20.956;2023-03-20T14:10:33;94886.63;;;15.23;43.72
22047;BME280;11187;49.412;20.956;2023-03-20T14:13:13;94885.25;;;15.14;44.21
22047;BME280;11187;49.412;20.956;2023-03-20T14:16:09;94889.16;;;15.02;43.36
22047;BME280;11187;49.412;20.956;2023-03-20T14:18:48;94893.97;;;14.90;43.54
22047;BME280;11187;49.412;20.956;2023-03-20T14:21:46;94898.53;;;14.83;43.82
22047;BME280;11187;49.412;20.956;2023-03-20T14:24:45;94897.00;;;14.77;45.02
22047;BME280;11187;49.412;20.956;2023-03-20T14:27:21;94898.09;;;14.72;45.70
22047;BME280;11187;49.412;20.956;2023-03-20T14:33:23;94914.50;;;14.46;46.16
22047;BME280;11187;49.412;20.956;2023-03-20T14:36:19;94909.88;;;14.30;47.07
22047;BME280;11187;49.412;20.956;2023-03-20T14:42:02;94916.50;;;14.14;48.07
22047;BME280;11187;49.412;20.956;2023-03-20T14:50:40;94908.31;;;13.77;50.83
22047;BME280;11187;49.412;20.956;2023-03-20T14:53:42;94914.59;;;13.69;51.77
22047;BME280;11187;49.412;20.956;2023-03-20T14:56:16;94911.50;;;13.59;51.73
22047;BME280;11187;49.412;20.956;2023-03-20T14:59:22;94905.88;;;13.48;52.24
22047;BME280;11187;49.412;20.956;2023-03-20T15:01:58;94911.38;;;13.37;53.07
22047;BME280;11187;49.412;20.956;2023-03-20T15:04:45;94911.66;;;13.28;53.63
22047;BME280;11187;49.412;20.956;2023-03-20T15:07:29;94908.41;;;13.21;53.66
22047;BME280;11187;49.412;20.956;2023-03-20T15:10:24;94913.13;;;13.08;54.05
22047;BME280;11187;49.412;20.956;2023-03-20T15:13:18;94912.47;;;13.02;54.17
22047;BME280;11187;49.412;20.956;2023-03-20T15:16:14;94915.19;;;12.97;54.57
22047;BME280;11187;49.412;20.956;2023-03-20T15:19:19;94917.09;;;12.90;54.79
22047;BME280;11187;49.412;20.956;2023-03-20T15:21:53;94919.84;;;12.84;55.73
22047;BME280;11187;49.412;20.956;2023-03-20T15:24:39;94920.78;;;12.82;55.59
22047;BME280;11187;49.412;20.956;2023-03-20T15:27:13;94914.06;;;12.78;55.68
22047;BME280;11187;49.412;20.956;2023-03-20T15:30:01;94917.72;;;12.69;56.42
22047;BME280;11187;49.412;20.956;2023-03-20T15:32:35;94912.72;;;12.64;56.43
22047;BME280;11187;49.412;20.956;2023-03-20T15:35:26;94923.13;;;12.61;57.16
22047;BME280;11187;49.412;20.956;2023-03-20T15:38:04;94918.16;;;12.55;57.91
22047;BME280;11187;49.412;20.956;2023-03-20T15:40:58;94916.53;;;12.51;58.21
22047;BME280;11187;49.412;20.956;2023-03-20T15:43:52;94928.66;;;12.47;58.13
22047;BME280;11187;49.412;20.956;2023-03-20T15:47:13;94920.28;;;12.41;57.93
22047;BME280;11187;49.412;20.956;2023-03-20T15:50:12;94915.31;;;12.35;58.37
22047;BME280;11187;49.412;20.956;2023-03-20T15:53:07;94922.19;;;12.34;58.62
22047;BME280;11187;49.412;20.956;2023-03-20T15:55:50;94923.13;;;12.31;59.03
22047;BME280;11187;49.412;20.956;2023-03-20T15:58:56;94926.59;;;12.29;59.15
22047;BME280;11187;49.412;20.956;2023-03-20T16:01:30;94925.00;;;12.25;59.24
22047;BME280;11187;49.412;20.956;2023-03-20T16:04:18;94925.09;;;12.22;59.77
22047;BME280;11187;49.412;20.956;2023-03-20T16:06:59;94937.06;;;12.21;59.61
22047;BME280;11187;49.412;20.956;2023-03-20T16:09:45;94933.69;;;12.19;59.95
22047;BME280;11187;49.412;20.956;2023-03-20T16:12:19;94943.13;;;12.19;60.37
22047;BME280;11187;49.412;20.956;2023-03-20T16:15:16;94939.81;;;12.15;60.84
22047;BME280;11187;49.412;20.956;2023-03-20T16:17:57;94937.31;;;12.12;60.98
22047;BME280;11187;49.412;20.956;2023-03-20T16:20:58;94939.97;;;12.09;61.44
22047;BME280;11187;49.412;20.956;2023-03-20T16:23:55;94950.38;;;12.04;61.33
22047;BME280;11187;49.412;20.956;2023-03-20T16:26:29;94951.31;;;12.02;61.79
22047;BME280;11187;49.412;20.956;2023-03-20T16:29:24;94952.25;;;11.98;62.24